Time;durP1;ratioP1;P1;durP2;ratioP2;P2;SDS_P1;SDS_P2;PMS_P1;PMS_P2;Temp;Humidity;BMP_temperature;BMP_pressure;BME280_temperature;BME280_humidity;BME280_pressure;Samples;Min_cycle;Max_cycle;Signal;HPM_P1;HPM_P2
2020/12/11 00:00:47;;;;;;;7.45;1.27;;;23.40;94.20;;;;;;5052817;28;20052;-46
2020/12/11 00:03:15;;;;;;;6.60;1.45;;;23.20;94.00;;;;;;5035077;28;20469;-45
2020/12/11 00:05:43;;;;;;;6.70;1.38;;;23.30;94.40;;;;;;5053396;28;20147;-45
2020/12/11 00:08:11;;;;;;;3.60;1.20;;;23.20;94.10;;;;;;5052804;28;20021;-51
2020/12/11 00:10:39;;;;;;;6.00;1.10;;;23.10;94.50;;;;;;5053511;28;20143;-47
2020/12/11 00:13:07;;;;;;;5.85;1.25;;;23.00;95.80;;;;;;5053487;28;20521;-46
2020/12/11 00:15:35;;;;;;;6.53;0.90;;;23.50;95.60;;;;;;5053347;28;20032;-46
2020/12/11 00:18:02;;;;;;;5.50;1.25;;;23.80;94.60;;;;;;5053062;28;20060;-47
2020/12/11 00:20:31;;;;;;;5.18;1.60;;;23.90;94.90;;;;;;5052819;28;20021;-48
2020/12/11 00:23:03;;;;;;;7.82;1.30;;;24.40;94.60;;;;;;5052490;28;20107;-50
2020/12/11 00:25:33;;;;;;;5.85;1.00;;;24.40;94.00;;;;;;5052695;28;20033;-49
2020/12/11 00:28:01;;;;;;;6.72;0.93;;;24.60;92.90;;;;;;5017502;28;20485;-45
2020/12/11 00:30:29;;;;;;;7.45;1.77;;;24.20;93.50;;;;;;5052680;28;20037;-46
2020/12/11 00:32:56;;;;;;;4.95;1.10;;;24.40;93.30;;;;;;5052896;28;20021;-46
2020/12/11 00:35:24;;;;;;;5.20;1.08;;;24.40;94.70;;;;;;5052758;28;20047;-45
2020/12/11 00:37:52;;;;;;;5.20;1.10;;;24.60;94.40;;;;;;5053176;28;20040;-48
2020/12/11 00:40:20;;;;;;;6.10;1.17;;;24.80;93.90;;;;;;5053372;28;20033;-45
2020/12/11 00:42:48;;;;;;;3.58;0.93;;;24.40;93.60;;;;;;5053181;28;20112;-48
2020/12/11 00:45:16;;;;;;;6.15;1.38;;;23.60;95.00;;;;;;5052993;28;20021;-46
2020/12/11 00:47:44;;;;;;;7.95;1.35;;;23.60;95.10;;;;;;5052786;28;20021;-47
2020/12/11 00:50:12;;;;;;;4.43;0.95;;;23.60;95.30;;;;;;5052520;28;20025;-50
2020/12/11 00:52:40;;;;;;;4.43;1.20;;;23.50;94.40;;;;;;5052227;28;20025;-45
2020/12/11 00:55:07;;;;;;;5.15;1.00;;;23.60;95.20;;;;;;5052355;28;20053;-46
2020/12/11 00:57:36;;;;;;;3.92;1.08;;;23.70;95.00;;;;;;5052632;28;20033;-47
2020/12/11 01:00:06;;;;;;;6.63;1.40;;;23.30;95.50;;;;;;5052817;28;20037;-46
2020/12/11 01:02:33;;;;;;;4.35;0.90;;;22.80;95.00;;;;;;5053105;28;20385;-47
2020/12/11 01:05:01;;;;;;;5.35;1.00;;;22.80;95.30;;;;;;5052152;28;20189;-48
2020/12/11 01:07:28;;;;;;;3.70;0.70;;;23.00;95.00;;;;;;5053749;28;20040;-46
2020/12/11 01:09:55;;;;;;;4.70;0.80;;;23.30;94.70;;;;;;5056338;28;20469;-47
2020/12/11 01:12:23;;;;;;;5.05;0.90;;;23.60;94.30;;;;;;5056885;28;20048;-46
2020/12/11 01:14:51;;;;;;;6.45;1.10;;;23.80;94.10;;;;;;5056606;28;20067;-46
2020/12/11 01:17:19;;;;;;;5.93;0.93;;;23.80;95.00;;;;;;5056622;28;20358;-48
2020/12/11 01:19:47;;;;;;;5.07;1.05;;;24.30;94.80;;;;;;5056864;28;20037;-46
2020/12/11 01:22:14;;;;;;;5.50;1.00;;;24.70;93.10;;;;;;5056465;28;20040;-50
2020/12/11 01:24:41;;;;;;;8.02;1.27;;;24.90;92.50;;;;;;5056415;28;20043;-46
2020/12/11 01:27:09;;;;;;;2.90;1.00;;;24.70;91.80;;;;;;5055908;28;20056;-46
2020/12/11 01:29:36;;;;;;;5.07;1.45;;;25.00;92.50;;;;;;5056195;28;20025;-45
2020/12/11 01:32:03;;;;;;;4.85;1.13;;;25.00;91.70;;;;;;5055719;28;20040;-45
2020/12/11 01:34:31;;;;;;;4.80;1.13;;;25.10;92.60;;;;;;5055982;28;20419;-48
2020/12/11 01:37:03;;;;;;;5.22;1.40;;;25.60;92.40;;;;;;5055952;28;20033;-47
2020/12/11 01:39:31;;;;;;;6.10;1.08;;;25.70;92.20;;;;;;5056064;28;20025;-46
2020/12/11 01:42:00;;;;;;;5.35;0.95;;;25.40;92.00;;;;;;5056142;28;20057;-47
2020/12/11 01:44:28;;;;;;;4.13;1.40;;;25.40;91.60;;;;;;5055986;28;20441;-46
2020/12/11 01:46:57;;;;;;;6.43;1.27;;;24.60;92.10;;;;;;5056038;28;20377;-45
2020/12/11 01:49:26;;;;;;;5.45;1.10;;;24.10;92.70;;;;;;5056360;28;20017;-46
2020/12/11 01:51:54;;;;;;;6.78;1.00;;;23.50;93.60;;;;;;5055689;28;20545;-45
2020/12/11 01:54:22;;;;;;;6.05;1.38;;;23.50;93.50;;;;;;5055269;28;20502;-45
2020/12/11 01:57:00;;;;;;;5.28;1.10;;;23.60;93.50;;;;;;5055724;28;20024;-46
2020/12/11 01:59:38;;;;;;;9.07;1.50;;;23.90;92.80;;;;;;5022149;28;20056;-48
2020/12/11 02:02:07;;;;;;;6.45;1.40;;;24.40;93.30;;;;;;5055146;28;20025;-49
2020/12/11 02:04:36;;;;;;;4.80;1.17;;;25.10;92.60;;;;;;5054980;28;20056;-46
2020/12/11 02:07:05;;;;;;;5.25;1.10;;;25.30;91.40;;;;;;5037745;28;20064;-45
2020/12/11 02:09:34;;;;;;;6.72;1.70;;;25.00;91.80;;;;;;5055554;28;20027;-45
2020/12/11 02:12:03;;;;;;;6.03;1.50;;;24.80;92.00;;;;;;5055007;28;20500;-46
2020/12/11 02:14:32;;;;;;;6.78;1.00;;;24.10;92.40;;;;;;5055527;28;20028;-47
2020/12/11 02:17:02;;;;;;;8.38;1.23;;;24.30;92.90;;;;;;5021133;28;20045;-47
2020/12/11 02:19:32;;;;;;;5.43;1.00;;;24.50;93.00;;;;;;5055537;28;20033;-47
2020/12/11 02:22:01;;;;;;;4.90;1.33;;;25.00;91.90;;;;;;5055193;28;20048;-45
2020/12/11 02:24:29;;;;;;;6.75;1.60;;;24.80;92.20;;;;;;5054798;28;20021;-48
2020/12/11 02:27:03;;;;;;;9.55;1.30;;;24.60;91.90;;;;;;5037344;28;20057;-45
2020/12/11 02:29:31;;;;;;;6.43;1.38;;;24.20;92.30;;;;;;5054905;28;20087;-46
2020/12/11 02:31:59;;;;;;;7.00;1.63;;;24.00;92.30;;;;;;5054889;28;20104;-45
2020/12/11 02:34:26;;;;;;;6.63;1.23;;;23.80;92.70;;;;;;5054586;28;20102;-46
2020/12/11 02:36:59;;;;;;;7.43;1.30;;;23.40;92.70;;;;;;5054643;28;20113;-45
2020/12/11 02:39:27;;;;;;;6.28;1.17;;;23.40;93.20;;;;;;5055484;28;20587;-47
2020/12/11 02:41:55;;;;;;;6.85;1.45;;;23.40;92.70;;;;;;5054323;28;20029;-49
2020/12/11 02:44:23;;;;;;;5.78;1.20;;;23.30;93.70;;;;;;5054978;28;20029;-47
2020/12/11 02:46:51;;;;;;;7.63;1.40;;;23.30;93.70;;;;;;5054683;28;20030;-51
2020/12/11 02:49:19;;;;;;;5.65;0.90;;;23.30;93.70;;;;;;5054830;28;20029;-51
2020/12/11 02:51:47;;;;;;;7.32;1.52;;;23.30;93.10;;;;;;5054464;28;20028;-48
2020/12/11 02:54:15;;;;;;;5.95;1.00;;;23.20;92.80;;;;;;5054983;28;20033;-47
2020/12/11 02:56:42;;;;;;;5.93;1.25;;;23.20;93.30;;;;;;5054432;28;20025;-46
2020/12/11 02:59:11;;;;;;;6.85;1.35;;;23.40;93.00;;;;;;5054019;28;20021;-49
2020/12/11 03:01:39;;;;;;;4.43;0.90;;;23.60;92.30;;;;;;5054303;28;20108;-49
2020/12/11 03:04:06;;;;;;;4.32;1.02;;;23.60;92.60;;;;;;5053785;28;20048;-45
2020/12/11 03:06:35;;;;;;;6.88;1.10;;;23.50;93.10;;;;;;5036075;28;20477;-49
2020/12/11 03:09:04;;;;;;;5.90;1.15;;;23.60;93.10;;;;;;5019241;28;20060;-47
2020/12/11 03:11:32;;;;;;;5.78;1.10;;;23.50;93.00;;;;;;5053924;28;20025;-46
2020/12/11 03:14:00;;;;;;;4.75;0.90;;;23.40;93.10;;;;;;5035812;28;20028;-57
2020/12/11 03:16:28;;;;;;;9.98;1.40;;;23.40;93.20;;;;;;5053790;28;20032;-57
2020/12/11 03:18:56;;;;;;;7.40;1.50;;;23.40;93.30;;;;;;5053956;28;20423;-61
2020/12/11 03:21:24;;;;;;;4.78;1.58;;;23.30;93.10;;;;;;5053498;28;20021;-55
2020/12/11 03:23:52;;;;;;;4.40;1.13;;;23.40;93.10;;;;;;5054318;28;20533;-58
2020/12/11 03:26:20;;;;;;;3.90;0.90;;;23.40;92.80;;;;;;5053660;28;20025;-61
2020/12/11 03:28:51;;;;;;;5.68;1.40;;;23.60;92.80;;;;;;5053600;28;20135;-62
2020/12/11 03:31:20;;;;;;;5.60;1.00;;;23.60;92.80;;;;;;5053072;28;20408;-62
2020/12/11 03:33:48;;;;;;;6.95;1.35;;;23.50;93.00;;;;;;5053550;28;20036;-61
2020/12/11 03:36:35;;;;;;;8.98;1.17;;;23.30;92.80;;;;;;5018700;28;20032;-62
2020/12/11 03:39:04;;;;;;;5.55;1.38;;;23.20;93.10;;;;;;4978852;28;20399;-61
2020/12/11 03:41:32;;;;;;;6.05;1.15;;;22.90;93.40;;;;;;5011741;28;20037;-61
2020/12/11 03:44:00;;;;;;;5.97;0.90;;;22.60;92.70;;;;;;4995300;28;20045;-61
2020/12/11 03:46:28;;;;;;;8.10;1.45;;;22.50;93.10;;;;;;5011462;28;20029;-61
2020/12/11 03:48:56;;;;;;;4.75;1.30;;;22.40;93.60;;;;;;5011340;28;20042;-61
2020/12/11 03:51:25;;;;;;;4.70;1.38;;;22.40;93.70;;;;;;5011384;28;20053;-61
2020/12/11 03:53:53;;;;;;;6.32;1.08;;;22.40;94.30;;;;;;5011318;28;20130;-61
2020/12/11 03:56:21;;;;;;;5.50;0.95;;;22.30;93.70;;;;;;5011357;28;20437;-61
2020/12/11 03:58:49;;;;;;;4.50;0.88;;;22.20;94.30;;;;;;5011161;28;20037;-62
2020/12/11 04:01:17;;;;;;;5.03;1.10;;;22.10;94.50;;;;;;5011294;28;20030;-61
2020/12/11 04:03:45;;;;;;;6.57;1.13;;;22.00;94.10;;;;;;5010962;28;20053;-62
2020/12/11 04:06:14;;;;;;;4.50;1.10;;;21.80;94.40;;;;;;5011072;28;20030;-62
2020/12/11 04:08:43;;;;;;;6.38;1.00;;;21.70;94.80;;;;;;5011123;28;20466;-61
2020/12/11 04:11:13;;;;;;;3.25;0.80;;;21.80;95.50;;;;;;5052823;28;20467;-62
2020/12/11 04:13:42;;;;;;;6.18;1.30;;;22.40;95.30;;;;;;5052840;28;20021;-62
2020/12/11 04:16:11;;;;;;;9.43;1.52;;;22.80;94.40;;;;;;5052974;28;20075;-62
2020/12/11 04:18:39;;;;;;;4.20;1.10;;;23.10;94.40;;;;;;5053239;28;20025;-62
2020/12/11 04:21:13;;;;;;;6.15;1.23;;;23.10;94.30;;;;;;5053037;28;20488;-62
2020/12/11 04:23:43;;;;;;;5.03;1.40;;;22.80;94.30;;;;;;5017633;28;20040;-62
2020/12/11 04:26:11;;;;;;;6.75;1.27;;;22.70;94.40;;;;;;5052472;28;20035;-62
2020/12/11 04:28:39;;;;;;;5.05;1.10;;;22.50;95.10;;;;;;5017730;28;20043;-62
2020/12/11 04:31:07;;;;;;;7.03;1.60;;;22.50;95.60;;;;;;5017417;28;20052;-62
2020/12/11 04:33:35;;;;;;;5.25;1.20;;;22.30;95.30;;;;;;5052342;28;20021;-61
2020/12/11 04:36:03;;;;;;;5.28;0.98;;;22.20;95.40;;;;;;5034458;28;20108;-62
2020/12/11 04:38:32;;;;;;;6.63;1.40;;;21.90;95.60;;;;;;5052237;28;20032;-63
2020/12/11 04:41:01;;;;;;;5.40;0.93;;;21.90;96.30;;;;;;5052303;28;20037;-61
